Time;durP1;ratioP1;P1;durP2;ratioP2;P2;SDS_P1;SDS_P2;PMS_P1;PMS_P2;Temp;Humidity;BMP_temperature;BMP_pressure;BME280_temperature;BME280_humidity;BME280_pressure;Samples;Min_cycle;Max_cycle;Signal;HPM_P1;HPM_P2
2023/03/13 00:01:10;;;;;;;23.73;8.33;;;;;;;-42.67;75.47;92345.34;5082399;23;20207;-69
2023/03/13 00:03:36;;;;;;;23.57;8.87;;;;;;;-42.84;76.03;92344.13;5080906;23;20715;-67
2023/03/13 00:06:03;;;;;;;27.27;9.23;;;;;;;-42.81;76.58;92341.66;5089979;23;20263;-66
2023/03/13 00:08:29;;;;;;;24.73;8.47;;;;;;;-42.88;76.25;92332.09;5079180;23;20285;-68
2023/03/13 00:10:56;;;;;;;22.33;8.47;;;;;;;-42.75;76.29;92338.25;5076786;23;20219;-66
2023/03/13 00:13:23;;;;;;;24.43;9.00;;;;;;;-42.77;76.48;92339.16;5097824;23;22772;-66
2023/03/13 00:15:49;;;;;;;20.27;8.03;;;;;;;-42.77;76.14;92337.47;5074970;23;23320;-68
2023/03/13 00:18:15;;;;;;;19.57;7.57;;;;;;;-42.75;76.18;92333.38;5072406;23;20366;-69
2023/03/13 00:20:42;;;;;;;23.00;7.17;;;;;;;-42.67;75.61;92333.19;5063253;23;21635;-68
2023/03/13 00:23:08;;;;;;;20.27;7.70;;;;;;;-42.67;75.40;92330.75;5074063;23;25537;-68
2023/03/13 00:25:35;;;;;;;22.63;7.33;;;;;;;-42.54;75.70;92329.63;5065018;23;20290;-67
2023/03/13 00:28:01;;;;;;;22.97;6.70;;;;;;;-42.61;75.36;92333.03;5077855;23;23221;-68
2023/03/13 00:30:28;;;;;;;19.07;7.80;;;;;;;-42.54;75.67;92332.03;5080139;23;21561;-68
2023/03/13 00:32:55;;;;;;;16.87;7.03;;;;;;;-42.53;75.08;92325.53;5073188;23;21425;-69
2023/03/13 00:35:21;;;;;;;18.73;6.80;;;;;;;-42.45;74.84;92334.25;5083685;23;20723;-65
2023/03/13 00:37:48;;;;;;;15.17;6.93;;;;;;;-42.46;75.04;92334.28;5078311;23;20684;-69
2023/03/13 00:40:15;;;;;;;19.30;6.93;;;;;;;-42.46;75.28;92329.41;5076019;23;20207;-67
2023/03/13 00:42:41;;;;;;;16.73;5.83;;;;;;;-42.47;75.29;92331.06;5069037;23;20206;-66
2023/03/13 00:45:08;;;;;;;16.37;6.10;;;;;;;-42.48;75.31;92321.34;5058902;23;20207;-68
2023/03/13 00:47:35;;;;;;;12.27;5.20;;;;;;;-42.33;75.21;92332.31;5060450;23;20205;-66
2023/03/13 00:50:02;;;;;;;19.07;5.93;;;;;;;-42.29;75.31;92324.06;5033567;23;20208;-69
2023/03/13 00:52:29;;;;;;;13.43;5.67;;;;;;;-42.33;74.76;92325.81;5056031;23;20259;-66
2023/03/13 00:54:55;;;;;;;15.33;5.47;;;;;;;-42.42;75.08;92321.19;5062188;23;20346;-70
2023/03/13 00:57:22;;;;;;;13.10;5.20;;;;;;;-42.35;74.96;92320.19;5050463;23;20776;-69
2023/03/13 00:59:48;;;;;;;15.30;5.27;;;;;;;-42.31;75.32;92313.59;5051015;23;22760;-67
2023/03/13 01:02:15;;;;;;;12.83;5.63;;;;;;;-42.32;74.84;92312.00;5058689;23;20449;-64
2023/03/13 01:04:41;;;;;;;11.13;5.17;;;;;;;-42.14;74.53;92321.25;5046175;23;22533;-68
2023/03/13 01:07:08;;;;;;;12.40;5.13;;;;;;;-42.14;74.30;92313.94;5055120;23;20871;-69
2023/03/13 01:09:34;;;;;;;11.93;5.30;;;;;;;-42.16;74.73;92301.00;5054155;23;20635;-68
2023/03/13 01:12:01;;;;;;;11.87;5.17;;;;;;;-42.07;74.20;92287.78;5040402;23;20215;-67
2023/03/13 01:14:27;;;;;;;15.57;5.50;;;;;;;-42.17;74.50;92287.25;5051285;23;20273;-67
2023/03/13 01:16:54;;;;;;;15.40;5.57;;;;;;;-42.30;74.90;92276.25;5060009;23;20200;-67
2023/03/13 01:19:20;;;;;;;11.73;5.23;;;;;;;-42.31;74.79;92294.13;5062448;23;20489;-67
2023/03/13 01:21:47;;;;;;;14.73;5.20;;;;;;;-42.16;74.98;92283.97;5043094;23;21419;-67
2023/03/13 01:24:13;;;;;;;15.97;5.77;;;;;;;-42.28;74.33;92277.00;5053306;23;20264;-68
2023/03/13 01:26:40;;;;;;;14.37;5.67;;;;;;;-42.30;74.68;92264.06;5064678;23;20200;-66
2023/03/13 01:29:07;;;;;;;17.33;5.10;;;;;;;-42.31;75.19;92264.91;5053746;23;20712;-69
2023/03/13 01:31:34;;;;;;;14.47;5.73;;;;;;;-42.34;75.52;92270.63;5062713;23;20252;-66
2023/03/13 01:34:03;;;;;;;12.60;5.20;;;;;;;-42.34;75.07;92268.22;5067986;23;20258;-67
2023/03/13 01:36:31;;;;;;;12.70;5.63;;;;;;;-42.45;75.37;92262.88;5058164;23;20375;-70
2023/03/13 01:38:59;;;;;;;12.60;5.23;;;;;;;-42.43;75.74;92252.25;5050919;23;22932;-68
2023/03/13 01:41:27;;;;;;;15.17;5.90;;;;;;;-42.43;75.89;92251.47;5053072;23;20211;-67
2023/03/13 01:43:56;;;;;;;16.30;6.33;;;;;;;-42.39;75.42;92244.03;5060026;23;20792;-67
2023/03/13 01:46:26;;;;;;;12.97;5.77;;;;;;;-42.36;75.45;92241.50;5074053;23;20321;-69
2023/03/13 01:48:56;;;;;;;12.63;5.20;;;;;;;-42.38;75.73;92239.97;5091826;23;21201;-67
2023/03/13 01:51:26;;;;;;;15.27;5.77;;;;;;;-42.40;75.96;92230.28;5092619;23;25389;-68
2023/03/13 01:53:59;;;;;;;15.07;5.63;;;;;;;-42.33;76.12;92232.50;5089153;23;22832;-67
2023/03/13 01:56:36;;;;;;;12.67;5.63;;;;;;;-42.29;76.08;92234.81;5095718;23;25130;-69
2023/03/13 01:59:04;;;;;;;14.17;5.50;;;;;;;-42.39;76.15;92229.41;5077609;23;20432;-66
2023/03/13 02:01:30;;;;;;;13.03;5.73;;;;;;;-42.37;76.24;92227.75;5071010;23;20710;-67
2023/03/13 02:03:57;;;;;;;13.93;6.27;;;;;;;-42.28;75.80;92229.09;5077658;23;22390;-68
2023/03/13 02:06:27;;;;;;;17.63;6.13;;;;;;;-42.19;75.64;92235.38;5077062;23;20203;-68
2023/03/13 02:08:57;;;;;;;14.77;5.60;;;;;;;-42.30;76.07;92223.47;5072647;23;20923;-67
2023/03/13 02:11:31;;;;;;;18.03;6.57;;;;;;;-42.27;76.01;92218.53;5087818;23;20253;-67
2023/03/13 02:13:58;;;;;;;16.03;6.23;;;;;;;-42.28;76.21;92221.00;5077041;23;20203;-66
2023/03/13 02:16:25;;;;;;;16.77;6.23;;;;;;;-42.33;76.34;92222.78;5068998;23;20584;-67
2023/03/13 02:18:51;;;;;;;18.53;7.33;;;;;;;-42.49;77.24;92215.91;5090836;23;20202;-68
2023/03/13 02:21:27;;;;;;;18.40;5.83;;;;;;;-42.42;76.84;92212.47;5085612;23;20425;-68
2023/03/13 02:24:00;;;;;;;13.53;6.07;;;;;;;-42.38;77.37;92211.56;5096157;23;20209;-65
2023/03/13 02:26:26;;;;;;;17.03;6.97;;;;;;;-42.47;77.96;92209.38;5080080;23;21308;-68
2023/03/13 02:28:53;;;;;;;18.47;6.90;;;;;;;-42.41;78.45;92211.66;5078304;23;20207;-66
2023/03/13 02:31:20;;;;;;;15.27;6.63;;;;;;;-42.49;78.70;92215.91;5102748;23;20211;-66
2023/03/13 02:33:46;;;;;;;16.80;6.60;;;;;;;-42.37;78.62;92213.13;5087517;23;20203;-66
2023/03/13 02:36:13;;;;;;;18.00;6.80;;;;;;;-42.43;79.03;92215.75;5091037;23;22038;-69
2023/03/13 02:38:49;;;;;;;18.13;6.97;;;;;;;-42.40;79.24;92218.09;5090643;23;25659;-68
2023/03/13 02:41:17;;;;;;;18.43;7.30;;;;;;;-42.43;79.46;92207.66;5102917;23;20211;-67
2023/03/13 02:43:43;;;;;;;21.23;7.23;;;;;;;-42.47;80.23;92211.00;5072518;23;21333;-67
2023/03/13 02:46:18;;;;;;;21.47;7.17;;;;;;;-42.47;80.43;92215.88;5116135;23;20211;-65
2023/03/13 02:48:46;;;;;;;20.57;7.10;;;;;;;-42.47;80.95;92209.38;5083399;23;20433;-67
2023/03/13 02:51:24;;;;;;;25.60;7.10;;;;;;;-42.46;80.93;92193.91;5071308;23;20535;-68
2023/03/13 02:53:53;;;;;;;18.53;8.17;;;;;;;-42.44;80.99;92196.31;5101860;23;20203;-67
2023/03/13 02:56:21;;;;;;;20.27;7.90;;;;;;;-42.45;81.27;92209.34;5092981;23;21726;-68
2023/03/13 02:58:47;;;;;;;21.33;7.60;;;;;;;-42.49;81.60;92210.25;5086717;23;20263;-67
2023/03/13 03:01:16;;;;;;;16.27;6.47;;;;;;;-42.53;81.76;92202.22;5093937;23;22970;-66
2023/03/13 03:03:42;;;;;;;17.37;7.37;;;;;;;-42.58;82.41;92208.84;5096511;23;20205;-67
2023/03/13 03:06:09;;;;;;;17.30;7.83;;;;;;;-42.62;82.66;92205.72;5086310;23;20880;-67
2023/03/13 03:08:35;;;;;;;17.43;7.40;;;;;;;-42.57;82.63;92215.34;5090196;23;20263;-68
2023/03/13 03:11:04;;;;;;;15.20;7.30;;;;;;;-42.54;82.55;92210.38;5099930;23;20222;-69
2023/03/13 03:13:30;;;;;;;19.47;7.93;;;;;;;-42.50;82.63;92211.91;5092735;23;20271;-68
2023/03/13 03:15:57;;;;;;;21.50;8.07;;;;;;;-42.49;82.63;92213.47;5094771;23;20208;-67
2023/03/13 03:18:23;;;;;;;19.10;7.67;;;;;;;-42.57;83.07;92203.16;5091641;23;20923;-67
2023/03/13 03:20:50;;;;;;;17.03;7.17;;;;;;;-42.58;82.79;92194.25;5084331;23;20214;-68
2023/03/13 03:23:16;;;;;;;20.10;7.90;;;;;;;-42.67;82.58;92189.63;5086372;23;21417;-67
2023/03/13 03:25:43;;;;;;;18.73;7.73;;;;;;;-42.58;83.08;92199.13;5077568;23;20218;-68
2023/03/13 03:28:09;;;;;;;19.30;7.83;;;;;;;-42.63;83.07;92193.59;5086939;23;20238;-68
2023/03/13 03:30:36;;;;;;;17.77;7.53;;;;;;;-42.63;83.12;92196.81;5082426;23;20199;-67
2023/03/13 03:33:03;;;;;;;21.90;8.63;;;;;;;-42.56;82.68;92191.78;5098470;23;20298;-67
2023/03/13 03:35:29;;;;;;;17.57;7.73;;;;;;;-42.54;82.46;92195.78;5098911;23;20348;-67
2023/03/13 03:37:56;;;;;;;17.53;8.37;;;;;;;-42.64;82.57;92194.44;5070345;23;20207;-67
2023/03/13 03:40:22;;;;;;;21.37;8.20;;;;;;;-42.72;82.64;92191.41;5088551;23;20667;-67
2023/03/13 03:42:49;;;;;;;19.37;7.87;;;;;;;-42.71;83.16;92186.50;5088909;23;21829;-66
2023/03/13 03:45:15;;;;;;;16.37;7.67;;;;;;;-42.67;82.39;92184.78;5086020;23;20302;-66
2023/03/13 03:47:42;;;;;;;20.53;7.63;;;;;;;-42.66;82.45;92187.19;5095869;23;20203;-66
2023/03/13 03:50:10;;;;;;;19.20;8.37;;;;;;;-42.69;83.22;92179.97;5095727;23;22946;-66
2023/03/13 03:52:37;;;;;;;16.60;7.73;;;;;;;-42.70;83.51;92175.13;5093432;23;20206;-66
2023/03/13 03:55:04;;;;;;;19.20;7.73;;;;;;;-42.68;83.56;92173.47;5107213;23;20372;-67
2023/03/13 03:57:30;;;;;;;19.00;7.67;;;;;;;-42.66;84.04;92179.88;5093500;23;20275;-66
2023/03/13 03:59:57;;;;;;;21.73;7.57;;;;;;;-42.74;85.17;92168.75;5095488;23;20261;-65
2023/03/13 04:02:23;;;;;;;18.70;7.73;;;;;;;-42.80;85.53;92158.38;5087777;23;21096;-66
2023/03/13 04:04:50;;;;;;;19.27;7.83;;;;;;;-42.76;85.60;92158.25;5070423;23;20637;-67
2023/03/13 04:07:16;;;;;;;21.07;7.77;;;;;;;-42.78;86.71;92152.66;5090281;23;20232;-66
2023/03/13 04:09:43;;;;;;;18.57;7.80;;;;;;;-42.80;87.61;92153.53;5088065;23;25436;-68
2023/03/13 04:12:09;;;;;;;23.20;8.30;;;;;;;-42.70;87.64;92155.69;5054525;23;21981;-67
2023/03/13 04:14:36;;;;;;;23.10;8.67;;;;;;;-42.70;87.74;92141.09;5091117;23;20398;-68
2023/03/13 04:17:02;;;;;;;23.33;8.40;;;;;;;-42.82;88.73;92140.59;5094266;23;20214;-67
2023/03/13 04:19:29;;;;;;;21.23;8.30;;;;;;;-42.85;89.44;92139.91;5089191;23;21189;-63
2023/03/13 04:21:55;;;;;;;16.53;8.90;;;;;;;-42.84;90.20;92143.91;5094707;23;20218;-67
2023/03/13 04:24:22;;;;;;;20.03;8.30;;;;;;;-42.85;90.86;92140.69;5088166;23;20203;-69
2023/03/13 04:26:48;;;;;;;24.53;9.23;;;;;;;-42.82;91.28;92138.16;5085639;23;20287;-67
2023/03/13 04:29:15;;;;;;;22.13;9.40;;;;;;;-42.88;92.18;92130.25;5088225;23;20215;-67
2023/03/13 04:31:41;;;;;;;18.33;8.63;;;;;;;-42.86;92.80;92135.88;5095130;23;22592;-66
2023/03/13 04:34:08;;;;;;;28.07;9.47;;;;;;;-42.88;93.53;92131.03;5084976;23;20455;-67
2023/03/13 04:36:34;;;;;;;20.73;8.77;;;;;;;-42.80;93.75;92121.13;5120992;23;20522;-69
2023/03/13 04:39:01;;;;;;;23.57;9.03;;;;;;;-42.87;94.85;92112.41;5095249;23;21165;-68
2023/03/13 04:41:27;;;;;;;23.67;9.73;;;;;;;-42.85;95.39;92118.00;5088764;23;20265;-67
2023/03/13 04:43:54;;;;;;;22.07;9.50;;;;;;;-42.89;96.01;92122.16;5064202;23;20372;-67
2023/03/13 04:46:20;;;;;;;22.30;9.67;;;;;;;-42.93;96.63;92112.56;5083680;23;20373;-66
2023/03/13 04:48:47;;;;;;;25.37;10.23;;;;;;;-42.94;97.68;92114.19;5079669;23;20351;-66
2023/03/13 04:51:13;;;;;;;26.20;10.70;;;;;;;-42.86;97.89;92122.06;5069258;23;20285;-66
2023/03/13 04:53:40;;;;;;;25.13;11.40;;;;;;;-42.89;98.12;92121.38;5084905;23;20203;-66
2023/03/13 04:56:07;;;;;;;21.03;10.20;;;;;;;-42.86;98.02;92105.03;5062458;23;21792;-69
2023/03/13 04:58:33;;;;;;;35.37;12.20;;;;;;;-42.93;98.76;92107.69;5071870;23;21332;-65
2023/03/13 05:01:00;;;;;;;25.73;10.50;;;;;;;-42.91;98.48;92110.88;5073952;23;21679;-69
2023/03/13 05:03:27;;;;;;;26.00;10.70;;;;;;;-42.92;98.96;92102.78;5084943;23;20275;-65
2023/03/13 05:05:53;;;;;;;24.80;10.80;;;;;;;-42.93;99.26;92091.47;5072236;23;20213;-68
2023/03/13 05:08:20;;;;;;;25.17;10.20;;;;;;;-42.93;99.49;92093.09;5074338;23;22272;-68
2023/03/13 05:10:46;;;;;;;24.60;10.80;;;;;;;-42.91;99.72;92094.66;5082921;23;20368;-66
2023/03/13 05:13:13;;;;;;;22.13;10.20;;;;;;;-42.85;99.53;92091.25;5082453;23;20208;-67
2023/03/13 05:15:40;;;;;;;23.37;10.37;;;;;;;-42.83;99.86;92085.50;5085295;23;20260;-66
2023/03/13 05:18:06;;;;;;;26.20;10.90;;;;;;;-42.73;99.76;92093.31;5090646;22;20207;-70
2023/03/13 05:20:33;;;;;;;21.03;10.80;;;;;;;-42.78;99.68;92084.56;5064028;23;20208;-68
2023/03/13 05:22:59;;;;;;;22.17;10.93;;;;;;;-42.80;100.00;92083.00;5089212;23;20266;-66
2023/03/13 05:25:26;;;;;;;22.97;10.53;;;;;;;-42.70;100.00;92097.28;5109055;23;20215;-67
2023/03/13 05:27:53;;;;;;;25.63;11.30;;;;;;;-42.82;100.00;92096.03;5094182;23;20203;-65
2023/03/13 05:30:19;;;;;;;28.73;11.57;;;;;;;-42.78;100.00;92094.28;5099230;23;20208;-66
2023/03/13 05:32:46;;;;;;;23.63;10.67;;;;;;;-42.69;100.00;92086.72;5093952;23;23110;-65
2023/03/13 05:35:13;;;;;;;26.40;10.83;;;;;;;-42.73;100.00;92082.78;5083058;23;20770;-65
2023/03/13 05:37:40;;;;;;;22.27;11.10;;;;;;;-42.80;100.00;92078.13;5083147;23;20712;-66
2023/03/13 05:40:08;;;;;;;25.17;11.87;;;;;;;-42.67;100.00;92072.88;5097995;22;25464;-66
2023/03/13 05:42:34;;;;;;;23.97;10.67;;;;;;;-42.66;100.00;92079.34;5112560;23;20358;-67
2023/03/13 05:45:01;;;;;;;22.60;11.77;;;;;;;-42.62;100.00;92095.41;5125854;23;20214;-67
2023/03/13 05:47:28;;;;;;;26.13;11.40;;;;;;;-42.58;100.00;92094.50;5099315;23;21595;-67
2023/03/13 05:49:55;;;;;;;27.67;10.93;;;;;;;-42.56;100.00;92085.53;5139904;23;20198;-66
2023/03/13 05:52:21;;;;;;;27.77;11.17;;;;;;;-42.56;100.00;92089.59;5117968;23;20246;-65
2023/03/13 05:54:48;;;;;;;29.53;13.53;;;;;;;-42.52;100.00;92088.69;5097715;23;20207;-65
2023/03/13 05:57:15;;;;;;;28.13;12.93;;;;;;;-42.59;100.00;92083.97;5088253;23;21529;-63
2023/03/13 05:59:42;;;;;;;26.97;12.17;;;;;;;-42.55;100.00;92088.75;5100483;23;20260;-65
2023/03/13 06:02:09;;;;;;;27.77;12.37;;;;;;;-42.55;100.00;92077.38;5074427;23;20412;-67
2023/03/13 06:04:35;;;;;;;28.57;12.60;;;;;;;-42.55;100.00;92069.28;5079832;23;20332;-65
2023/03/13 06:07:02;;;;;;;29.77;12.40;;;;;;;-42.62;100.00;92066.22;5100452;23;21269;-65
2023/03/13 06:09:28;;;;;;;23.73;12.70;;;;;;;-42.54;100.00;92059.50;5083935;23;20209;-66
2023/03/13 06:11:55;;;;;;;34.57;14.20;;;;;;;-42.54;100.00;92064.38;5085462;23;20288;-63
2023/03/13 06:14:22;;;;;;;30.00;13.30;;;;;;;-42.53;100.00;92063.53;5100764;23;20211;-63
2023/03/13 06:16:48;;;;;;;27.87;13.60;;;;;;;-42.43;100.00;92056.78;5083534;23;20276;-67
2023/03/13 06:19:15;;;;;;;28.90;14.77;;;;;;;-42.56;100.00;92051.47;5087028;23;21459;-67
2023/03/13 06:21:42;;;;;;;28.97;13.47;;;;;;;-42.45;100.00;92053.59;5093923;23;20763;-65
2023/03/13 06:24:08;;;;;;;27.43;13.97;;;;;;;-42.47;100.00;92050.41;5094233;23;21323;-66
2023/03/13 06:26:35;;;;;;;36.33;15.07;;;;;;;-42.40;100.00;92061.53;5074914;23;20747;-66
2023/03/13 06:29:02;;;;;;;35.63;15.37;;;;;;;-42.43;100.00;92051.91;5095002;23;20209;-66
2023/03/13 06:31:28;;;;;;;31.03;13.80;;;;;;;-42.32;100.00;92047.44;5098160;23;20209;-68
2023/03/13 06:33:55;;;;;;;34.33;14.97;;;;;;;-42.32;100.00;92057.19;5084046;23;20214;-68
2023/03/13 06:36:23;;;;;;;34.93;15.00;;;;;;;-42.33;100.00;92062.13;5082175;23;20389;-66
2023/03/13 06:38:50;;;;;;;31.80;15.53;;;;;;;-42.29;100.00;92054.69;5080833;23;20202;-69
2023/03/13 06:41:16;;;;;;;30.43;14.47;;;;;;;-42.23;100.00;92070.72;5086501;23;20699;-66
2023/03/13 06:43:43;;;;;;;29.33;14.70;;;;;;;-42.25;100.00;92065.09;5083798;23;20290;-68
2023/03/13 06:46:18;;;;;;;32.60;16.03;;;;;;;-42.30;100.00;92062.03;5073560;23;22653;-67
2023/03/13 06:48:45;;;;;;;32.43;14.63;;;;;;;-42.18;100.00;92059.22;5074243;23;20647;-67
2023/03/13 06:51:13;;;;;;;32.57;15.17;;;;;;;-42.15;100.00;92052.63;5053021;23;20206;-67
2023/03/13 06:53:40;;;;;;;31.37;13.73;;;;;;;-42.21;100.00;92052.00;5082649;23;20559;-64
2023/03/13 06:56:07;;;;;;;28.90;13.60;;;;;;;-42.15;100.00;92046.97;5071505;23;20215;-66
2023/03/13 06:58:34;;;;;;;30.67;14.73;;;;;;;-42.16;100.00;92045.34;5070151;23;20401;-65
2023/03/13 07:01:12;;;;;;;36.13;14.10;;;;;;;-42.02;100.00;92048.16;5065267;23;20221;-66
2023/03/13 07:03:40;;;;;;;27.47;13.50;;;;;;;-42.01;100.00;92044.88;5090440;23;21274;-68
2023/03/13 07:06:07;;;;;;;35.47;14.40;;;;;;;-42.00;100.00;92039.16;5066186;23;20246;-65
2023/03/13 07:08:35;;;;;;;33.53;13.60;;;;;;;-41.94;100.00;92029.19;5070265;23;20211;-69
2023/03/13 07:11:07;;;;;;;27.77;13.43;;;;;;;-41.88;100.00;92024.97;5087145;23;21194;-67
2023/03/13 07:13:34;;;;;;;29.33;13.57;;;;;;;-41.84;100.00;92031.34;5093449;23;20207;-66
2023/03/13 07:16:06;;;;;;;28.67;13.07;;;;;;;-41.78;100.00;92033.56;5070157;23;20211;-65
2023/03/13 07:18:33;;;;;;;31.90;13.83;;;;;;;-41.75;100.00;92031.84;5090878;23;20207;-66
2023/03/13 07:21:03;;;;;;;32.57;12.40;;;;;;;-41.72;100.00;92026.84;5086019;23;20393;-66
2023/03/13 07:23:32;;;;;;;25.43;13.07;;;;;;;-41.73;100.00;92022.00;5076497;23;20203;-67
2023/03/13 07:26:04;;;;;;;28.80;12.87;;;;;;;-41.59;100.00;92031.31;5092396;23;20207;-70
2023/03/13 07:28:31;;;;;;;22.93;12.03;;;;;;;-41.57;100.00;92025.53;5078919;23;20244;-67
2023/03/13 07:31:15;;;;;;;29.67;12.20;;;;;;;-41.60;100.00;92025.63;5068760;23;20203;-66
2023/03/13 07:33:43;;;;;;;24.27;11.13;;;;;;;-41.58;100.00;92015.84;5066808;23;20261;-67
2023/03/13 07:36:11;;;;;;;29.90;11.03;;;;;;;-41.57;100.00;92010.91;5064370;23;20214;-66
2023/03/13 07:38:38;;;;;;;26.57;11.37;;;;;;;-41.44;100.00;92010.47;5086873;23;20381;-65
2023/03/13 07:41:05;;;;;;;25.53;10.97;;;;;;;-41.39;100.00;92011.13;5080133;23;20484;-65
2023/03/13 08:20:08;;;;;;;18.87;8.90;;;;;;;-39.80;97.21;92022.22;4277426;27;20578;-71
2023/03/13 08:22:36;;;;;;;19.93;9.10;;;;;;;-39.82;96.46;92013.34;4249369;28;25070;-71
2023/03/13 08:25:03;;;;;;;18.63;8.77;;;;;;;-39.73;96.75;92029.28;4269757;28;20226;-71
2023/03/13 08:27:30;;;;;;;24.60;8.90;;;;;;;-39.71;96.67;92022.69;4261225;28;20225;-70
2023/03/13 08:29:56;;;;;;;22.87;8.30;;;;;;;-39.69;96.43;92023.41;4266776;28;20291;-70
2023/03/13 08:32:23;;;;;;;21.60;9.17;;;;;;;-39.67;96.91;92021.69;4270803;28;22283;-72
2023/03/13 08:34:50;;;;;;;22.60;8.50;;;;;;;-39.59;96.21;92019.75;4268408;28;20370;-71
2023/03/13 08:37:16;;;;;;;22.13;8.50;;;;;;;-39.46;96.57;92015.13;4267350;28;20283;-70
2023/03/13 08:39:44;;;;;;;23.63;8.90;;;;;;;-39.49;95.77;92005.47;4267853;28;20322;-70
2023/03/13 08:42:13;;;;;;;27.57;9.23;;;;;;;-39.40;95.39;92001.00;4257289;28;22157;-71
2023/03/13 08:44:42;;;;;;;17.50;8.70;;;;;;;-39.38;95.28;91993.59;4255856;28;20258;-71
2023/03/13 08:47:08;;;;;;;18.67;8.70;;;;;;;-39.43;94.93;91988.91;4272408;28;20356;-70
2023/03/13 08:49:35;;;;;;;25.50;9.00;;;;;;;-39.40;95.33;91985.53;4269342;28;20239;-71
2023/03/13 08:52:04;;;;;;;25.50;8.93;;;;;;;-39.24;95.10;91983.22;4252992;28;20225;-70
2023/03/13 08:54:31;;;;;;;18.83;9.00;;;;;;;-39.12;94.24;91972.91;4284807;28;21844;-70
2023/03/13 08:57:01;;;;;;;22.60;8.60;;;;;;;-38.93;93.95;91971.22;4276756;28;21632;-71
2023/03/13 08:59:28;;;;;;;25.27;9.10;;;;;;;-38.66;93.02;91960.28;4259626;28;22158;-70
2023/03/13 09:01:54;;;;;;;18.70;8.23;;;;;;;-38.37;91.75;91963.81;4273062;28;20268;-72
2023/03/13 09:04:21;;;;;;;20.30;7.70;;;;;;;-38.16;90.33;91960.38;4280917;28;21015;-72
2023/03/13 09:06:47;;;;;;;20.83;8.17;;;;;;;-37.95;89.54;91965.13;4281779;28;20256;-71
2023/03/13 09:09:15;;;;;;;22.10;8.30;;;;;;;-37.85;89.35;91949.91;4289855;28;20697;-68
2023/03/13 09:11:42;;;;;;;25.57;8.40;;;;;;;-37.67;88.20;91940.84;4261595;28;20480;-70
2023/03/13 09:14:09;;;;;;;24.40;7.40;;;;;;;-37.26;86.25;91935.56;4276470;28;22376;-69
2023/03/13 09:16:36;;;;;;;20.83;6.97;;;;;;;-37.06;84.99;91923.94;4269317;28;20305;-69
2023/03/13 09:19:03;;;;;;;22.00;7.07;;;;;;;-36.82;84.86;91917.72;4255088;28;20323;-72
2023/03/13 09:21:32;;;;;;;18.43;6.53;;;;;;;-36.59;84.08;91925.56;4293956;28;21921;-73
2023/03/13 09:23:58;;;;;;;17.67;6.23;;;;;;;-36.50;83.41;91915.22;4275139;28;21878;-49
2023/03/13 09:26:26;;;;;;;18.20;6.40;;;;;;;-36.19;82.66;91923.41;4285210;28;20358;-67
2023/03/13 09:28:53;;;;;;;28.33;6.63;;;;;;;-36.13;81.59;91915.72;4256561;28;20358;-69
2023/03/13 09:31:25;;;;;;;17.60;6.60;;;;;;;-36.21;81.34;91910.41;4251913;28;20326;-69
2023/03/13 09:33:53;;;;;;;20.13;5.50;;;;;;;-36.27;82.49;91899.25;4269688;28;20233;-66
2023/03/13 09:36:20;;;;;;;18.27;6.20;;;;;;;-36.04;81.58;91904.56;4238243;28;21478;-69
2023/03/13 09:38:50;;;;;;;18.17;6.23;;;;;;;-36.06;81.51;91894.78;4281585;28;20264;-68
2023/03/13 09:41:17;;;;;;;17.27;5.97;;;;;;;-35.98;81.15;91896.81;4260618;28;20249;-69
2023/03/13 09:43:51;;;;;;;15.70;5.77;;;;;;;-35.88;80.80;91902.84;4268534;28;20231;-70
2023/03/13 09:46:24;;;;;;;16.77;5.70;;;;;;;-35.80;80.38;91895.03;4241625;28;20238;-68
2023/03/13 09:48:57;;;;;;;22.83;5.97;;;;;;;-35.81;80.45;91884.41;4258050;28;20961;-71
2023/03/13 09:51:31;;;;;;;18.83;5.87;;;;;;;-35.79;80.10;91887.53;4251453;28;20231;-70
2023/03/13 09:54:05;;;;;;;17.30;6.20;;;;;;;-35.75;80.62;91893.09;4275520;28;20321;-68
2023/03/13 09:56:44;;;;;;;19.10;6.13;;;;;;;-35.76;80.69;91879.22;4241699;28;20314;-68
2023/03/13 09:59:38;;;;;;;16.97;5.60;;;;;;;-35.74;80.06;91880.72;4278989;28;20256;-68
2023/03/13 10:02:20;;;;;;;13.03;5.40;;;;;;;-35.59;79.86;91874.09;4253490;28;21427;-68
2023/03/13 10:04:52;;;;;;;22.67;5.73;;;;;;;-35.62;79.84;91858.72;4260913;28;20434;-69
2023/03/13 10:07:20;;;;;;;20.37;5.53;;;;;;;-35.56;79.58;91861.59;4254120;28;20230;-67
2023/03/13 10:09:46;;;;;;;14.07;5.30;;;;;;;-35.50;78.50;91838.31;4258057;28;20245;-67
2023/03/13 10:12:31;;;;;;;20.53;5.23;;;;;;;-35.35;78.60;91878.50;4242847;28;20241;-70
2023/03/13 10:15:22;;;;;;;13.07;4.70;;;;;;;-35.40;78.40;91871.38;4251858;28;20230;-72
2023/03/13 10:17:48;;;;;;;19.53;5.27;;;;;;;-35.24;78.08;91878.66;4264300;28;21737;-70
2023/03/13 10:20:26;;;;;;;16.83;4.60;;;;;;;-35.37;78.52;91865.47;4256706;28;20359;-71
2023/03/13 10:22:59;;;;;;;15.23;5.43;;;;;;;-35.40;78.56;91853.34;4260607;28;21372;-66
2023/03/13 10:25:32;;;;;;;24.27;4.90;;;;;;;-35.41;78.76;91869.78;4255202;28;20321;-66
2023/03/13 10:27:59;;;;;;;18.37;5.07;;;;;;;-35.39;79.01;91872.16;4254693;28;21703;-67
2023/03/13 10:30:31;;;;;;;17.60;4.70;;;;;;;-35.41;78.78;91867.34;4264501;28;20290;-68
2023/03/13 10:33:18;;;;;;;19.03;5.33;;;;;;;-35.46;79.59;91857.75;4243836;28;20287;-70
2023/03/13 10:35:45;;;;;;;17.20;5.37;;;;;;;-35.36;79.84;91849.84;4257861;28;21274;-71
2023/03/13 10:38:17;;;;;;;17.40;4.90;;;;;;;-35.37;80.02;91846.56;4260984;28;21199;-68
2023/03/13 10:40:59;;;;;;;18.60;5.27;;;;;;;-35.43;80.88;91836.28;4258778;28;20304;-68
2023/03/13 10:43:28;;;;;;;18.17;5.10;;;;;;;-35.41;80.70;91827.94;4270483;28;20237;-68
2023/03/13 10:45:55;;;;;;;16.43;5.30;;;;;;;-35.46;81.34;91815.88;4267776;28;20230;-68
2023/03/13 10:48:23;;;;;;;20.03;5.97;;;;;;;-35.55;81.76;91823.81;4276791;28;21581;-70
2023/03/13 10:50:52;;;;;;;22.67;5.70;;;;;;;-35.46;81.98;91815.88;4266713;28;20288;-70
2023/03/13 10:53:19;;;;;;;23.03;5.63;;;;;;;-35.47;82.40;91811.03;4254778;28;20236;-69
2023/03/13 10:55:46;;;;;;;18.93;4.87;;;;;;;-35.44;83.36;91815.00;4256882;28;20301;-69
2023/03/13 10:58:20;;;;;;;13.10;4.70;;;;;;;-35.46;82.62;91790.47;4256840;28;20239;-70
2023/03/13 11:00:47;;;;;;;16.03;4.47;;;;;;;-35.52;82.02;91799.00;4248202;28;21397;-71
2023/03/13 11:03:22;;;;;;;22.20;4.60;;;;;;;-35.48;82.53;91797.16;4250892;28;21625;-68
2023/03/13 11:05:57;;;;;;;16.53;5.00;;;;;;;-35.42;82.14;91803.38;4243118;28;20708;-71
2023/03/13 11:08:26;;;;;;;11.30;4.40;;;;;;;-35.39;81.68;91781.03;4272444;28;21515;-69
2023/03/13 11:10:58;;;;;;;19.13;4.37;;;;;;;-35.30;81.70;91787.88;4246868;28;20222;-70
2023/03/13 11:13:41;;;;;;;21.80;4.93;;;;;;;-35.32;80.47;91782.25;4248517;28;20338;-72
2023/03/13 11:16:25;;;;;;;20.17;5.10;;;;;;;-35.33;80.07;91779.00;4257958;28;20293;-72
2023/03/13 11:19:08;;;;;;;20.47;4.37;;;;;;;-35.12;78.71;91774.47;4248107;28;20243;-71
2023/03/13 11:21:40;;;;;;;15.13;4.27;;;;;;;-35.08;77.97;91773.38;4261056;28;20836;-69
2023/03/13 11:24:15;;;;;;;20.43;4.50;;;;;;;-34.89;77.16;91760.72;4243877;28;21249;-70
2023/03/13 11:27:07;;;;;;;17.67;4.33;;;;;;;-34.71;76.65;91763.75;4262840;28;21333;-53
2023/03/13 11:29:55;;;;;;;15.97;5.07;;;;;;;-34.51;74.70;91732.88;4259986;28;20226;-64
2023/03/13 11:32:39;;;;;;;19.07;5.27;;;;;;;-34.63;74.59;91729.53;4255413;28;20672;-71
2023/03/13 11:35:18;;;;;;;16.77;4.40;;;;;;;-34.52;74.16;91718.97;4259459;28;21682;-69
2023/03/13 11:37:45;;;;;;;16.80;3.70;;;;;;;-34.42;73.45;91714.25;4264689;28;20238;-67
2023/03/13 11:40:20;;;;;;;16.83;4.53;;;;;;;-34.40;72.72;91702.59;4264294;28;20415;-70
2023/03/13 11:43:12;;;;;;;18.53;4.80;;;;;;;-34.20;72.21;91704.56;4251862;28;20247;-72
2023/03/13 11:46:02;;;;;;;24.23;4.63;;;;;;;-34.10;71.23;91703.97;4270775;28;21691;-72
2023/03/13 11:48:43;;;;;;;20.00;5.30;;;;;;;-34.21;71.50;91700.53;4269798;28;20236;-68
2023/03/13 11:51:19;;;;;;;23.90;5.37;;;;;;;-34.27;71.50;91691.03;4248602;28;20237;-68
2023/03/13 11:53:58;;;;;;;20.77;4.73;;;;;;;-34.06;70.54;91695.47;4263499;28;20248;-66
2023/03/13 11:56:36;;;;;;;14.83;4.30;;;;;;;-34.07;69.76;91693.88;4277147;28;22879;-69
2023/03/13 11:59:20;;;;;;;15.23;4.00;;;;;;;-34.14;69.99;91690.28;4275901;28;20356;-69